sensor_id;sensor_type;location;lat;lon;timestamp;P1;P2;P0
48155;PMS5003;35568;48.104;11.782;2023-03-08T00:00:40;17;17;
48155;PMS5003;35568;48.104;11.782;2023-03-08T00:03:08;18;18;
48155;PMS5003;35568;48.104;11.782;2023-03-08T00:05:38;17;16;
48155;PMS5003;35568;48.104;11.782;2023-03-08T00:08:05;18;17;
48155;PMS5003;35568;48.104;11.782;2023-03-08T00:10:32;15;15;
48155;PMS5003;35568;48.104;11.782;2023-03-08T00:12:59;17;15;
48155;PMS5003;35568;48.104;11.782;2023-03-08T00:15:26;15;15;
48155;PMS5003;35568;48.104;11.782;2023-03-08T00:17:52;17;17;
48155;PMS5003;35568;48.104;11.782;2023-03-08T00:20:20;15;14;
48155;PMS5003;35568;48.104;11.782;2023-03-08T00:22:47;13;13;
48155;PMS5003;35568;48.104;11.782;2023-03-08T00:25:14;13;13;
48155;PMS5003;35568;48.104;11.782;2023-03-08T00:27:41;16;14;
48155;PMS5003;35568;48.104;11.782;2023-03-08T00:30:09;18;17;
48155;PMS5003;35568;48.104;11.782;2023-03-08T00:32:37;13;11;
48155;PMS5003;35568;48.104;11.782;2023-03-08T00:35:04;16;14;
48155;PMS5003;35568;48.104;11.782;2023-03-08T00:37:31;14;13;
48155;PMS5003;35568;48.104;11.782;2023-03-08T00:39:59;17;15;
48155;PMS5003;35568;48.104;11.782;2023-03-08T00:42:26;17;15;
48155;PMS5003;35568;48.104;11.782;2023-03-08T00:44:53;15;13;
48155;PMS5003;35568;48.104;11.782;2023-03-08T00:47:20;11;11;
48155;PMS5003;35568;48.104;11.782;2023-03-08T00:49:47;15;14;
48155;PMS5003;35568;48.104;11.782;2023-03-08T00:52:14;11;11;
48155;PMS5003;35568;48.104;11.782;2023-03-08T00:54:41;14;14;
48155;PMS5003;35568;48.104;11.782;2023-03-08T00:57:08;14;14;
48155;PMS5003;35568;48.104;11.782;2023-03-08T00:59:35;14;13;
48155;PMS5003;35568;48.104;11.782;2023-03-08T01:02:02;13;12;
48155;PMS5003;35568;48.104;11.782;2023-03-08T01:04:31;18;17;
48155;PMS5003;35568;48.104;11.782;2023-03-08T01:06:58;13;12;
48155;PMS5003;35568;48.104;11.782;2023-03-08T01:09:26;15;14;
48155;PMS5003;35568;48.104;11.782;2023-03-08T01:11:53;16;15;
48155;PMS5003;35568;48.104;11.782;2023-03-08T01:14:21;13;13;
48155;PMS5003;35568;48.104;11.782;2023-03-08T01:16:47;12;12;
48155;PMS5003;35568;48.104;11.782;2023-03-08T01:19:15;12;11;
48155;PMS5003;35568;48.104;11.782;2023-03-08T01:21:41;12;12;
48155;PMS5003;35568;48.104;11.782;2023-03-08T01:24:09;11;11;
48155;PMS5003;35568;48.104;11.782;2023-03-08T01:26:36;11;10;
48155;PMS5003;35568;48.104;11.782;2023-03-08T01:29:03;12;11;
48155;PMS5003;35568;48.104;11.782;2023-03-08T01:31:30;11;11;
48155;PMS5003;35568;48.104;11.782;2023-03-08T01:33:57;15;13;
48155;PMS5003;35568;48.104;11.782;2023-03-08T01:36:24;12;12;
48155;PMS5003;35568;48.104;11.782;2023-03-08T01:38:52;13;12;
48155;PMS5003;35568;48.104;11.782;2023-03-08T01:41:21;13;13;
48155;PMS5003;35568;48.104;11.782;2023-03-08T01:43:49;13;13;
48155;PMS5003;35568;48.104;11.782;2023-03-08T01:46:20;13;11;
48155;PMS5003;35568;48.104;11.782;2023-03-08T01:50:18;10;10;
48155;PMS5003;35568;48.104;11.782;2023-03-08T01:52:47;12;11;
48155;PMS5003;35568;48.104;11.782;2023-03-08T01:55:16;8;8;
48155;PMS5003;35568;48.104;11.782;2023-03-08T01:57:45;16;15;
48155;PMS5003;35568;48.104;11.782;2023-03-08T02:00:17;14;13;
48155;PMS5003;35568;48.104;11.782;2023-03-08T02:02:47;13;12;
48155;PMS5003;35568;48.104;11.782;2023-03-08T02:05:17;14;13;
48155;PMS5003;35568;48.104;11.782;2023-03-08T02:07:45;13;12;
48155;PMS5003;35568;48.104;11.782;2023-03-08T02:10:12;15;14;
48155;PMS5003;35568;48.104;11.782;2023-03-08T02:12:39;13;11;
48155;PMS5003;35568;48.104;11.782;2023-03-08T02:15:07;10;9;
48155;PMS5003;35568;48.104;11.782;2023-03-08T02:17:37;10;10;
48155;PMS5003;35568;48.104;11.782;2023-03-08T02:20:07;13;13;
48155;PMS5003;35568;48.104;11.782;2023-03-08T02:22:40;13;13;
48155;PMS5003;35568;48.104;11.782;2023-03-08T02:25:11;13;12;
48155;PMS5003;35568;48.104;11.782;2023-03-08T02:27:39;9;9;
48155;PMS5003;35568;48.104;11.782;2023-03-08T02:30:07;12;12;
48155;PMS5003;35568;48.104;11.782;2023-03-08T02:32:36;10;10;
48155;PMS5003;35568;48.104;11.782;2023-03-08T02:35:03;16;14;
48155;PMS5003;35568;48.104;11.782;2023-03-08T02:37:31;13;12;
48155;PMS5003;35568;48.104;11.782;2023-03-08T02:39:59;16;15;
48155;PMS5003;35568;48.104;11.782;2023-03-08T02:42:26;12;12;
48155;PMS5003;35568;48.104;11.782;2023-03-08T02:44:54;12;12;
48155;PMS5003;35568;48.104;11.782;2023-03-08T02:47:20;14;12;
48155;PMS5003;35568;48.104;11.782;2023-03-08T02:49:47;13;13;
48155;PMS5003;35568;48.104;11.782;2023-03-08T02:52:14;16;14;
48155;PMS5003;35568;48.104;11.782;2023-03-08T02:54:41;13;12;
48155;PMS5003;35568;48.104;11.782;2023-03-08T02:57:08;14;13;
48155;PMS5003;35568;48.104;11.782;2023-03-08T02:59:35;13;13;
48155;PMS5003;35568;48.104;11.782;2023-03-08T03:02:02;17;16;
48155;PMS5003;35568;48.104;11.782;2023-03-08T03:04:29;11;11;
48155;PMS5003;35568;48.104;11.782;2023-03-08T03:06:57;14;14;
48155;PMS5003;35568;48.104;11.782;2023-03-08T03:09:25;18;17;
48155;PMS5003;35568;48.104;11.782;2023-03-08T03:11:53;16;15;
48155;PMS5003;35568;48.104;11.782;2023-03-08T03:14:21;13;13;
48155;PMS5003;35568;48.104;11.782;2023-03-08T03:16:48;13;12;
48155;PMS5003;35568;48.104;11.782;2023-03-08T03:19:15;16;16;
48155;PMS5003;35568;48.104;11.782;2023-03-08T03:21:41;14;13;
48155;PMS5003;35568;48.104;11.782;2023-03-08T03:24:08;17;15;
48155;PMS5003;35568;48.104;11.782;2023-03-08T03:26:35;13;13;
48155;PMS5003;35568;48.104;11.782;2023-03-08T03:29:02;14;13;
48155;PMS5003;35568;48.104;11.782;2023-03-08T03:31:29;15;15;
48155;PMS5003;35568;48.104;11.782;2023-03-08T03:33:56;17;15;
48155;PMS5003;35568;48.104;11.782;2023-03-08T03:36:23;21;19;
48155;PMS5003;35568;48.104;11.782;2023-03-08T03:38:50;14;14;
48155;PMS5003;35568;48.104;11.782;2023-03-08T03:41:19;11;11;
48155;PMS5003;35568;48.104;11.782;2023-03-08T03:43:48;17;16;
48155;PMS5003;35568;48.104;11.782;2023-03-08T03:46:15;11;11;
48155;PMS5003;35568;48.104;11.782;2023-03-08T03:48:44;12;12;
48155;PMS5003;35568;48.104;11.782;2023-03-08T03:51:13;14;14;
48155;PMS5003;35568;48.104;11.782;2023-03-08T03:53:41;15;15;
48155;PMS5003;35568;48.104;11.782;2023-03-08T03:56:09;20;19;
48155;PMS5003;35568;48.104;11.782;2023-03-08T03:58:39;16;15;
48155;PMS5003;35568;48.104;11.782;2023-03-08T04:03:00;15;15;
48155;PMS5003;35568;48.104;11.782;2023-03-08T04:05:27;15;15;
48155;PMS5003;35568;48.104;11.782;2023-03-08T04:07:54;15;15;
48155;PMS5003;35568;48.104;11.782;2023-03-08T04:10:22;12;12;
48155;PMS5003;35568;48.104;11.782;2023-03-08T04:12:49;18;16;
48155;PMS5003;35568;48.104;11.782;2023-03-08T04:15:18;23;21;
48155;PMS5003;35568;48.104;11.782;2023-03-08T04:17:45;16;15;
48155;PMS5003;35568;48.104;11.782;2023-03-08T04:20:12;23;22;
48155;PMS5003;35568;48.104;11.782;2023-03-08T04:22:39;18;18;
48155;PMS5003;35568;48.104;11.782;2023-03-08T04:25:06;21;19;
48155;PMS5003;35568;48.104;11.782;2023-03-08T04:27:34;18;15;
48155;PMS5003;35568;48.104;11.782;2023-03-08T04:30:01;18;16;
48155;PMS5003;35568;48.104;11.782;2023-03-08T04:32:29;12;12;
48155;PMS5003;35568;48.104;11.782;2023-03-08T04:34:56;13;13;
48155;PMS5003;35568;48.104;11.782;2023-03-08T04:37:23;15;15;
48155;PMS5003;35568;48.104;11.782;2023-03-08T04:39:50;13;13;
48155;PMS5003;35568;48.104;11.782;2023-03-08T04:42:17;14;12;
48155;PMS5003;35568;48.104;11.782;2023-03-08T04:44:44;19;18;
48155;PMS5003;35568;48.104;11.782;2023-03-08T04:47:11;20;19;
48155;PMS5003;35568;48.104;11.782;2023-03-08T04:49:38;15;12;
48155;PMS5003;35568;48.104;11.782;2023-03-08T04:52:05;13;13;
48155;PMS5003;35568;48.104;11.782;2023-03-08T04:54:32;12;11;
48155;PMS5003;35568;48.104;11.782;2023-03-08T04:57:00;16;16;
48155;PMS5003;35568;48.104;11.782;2023-03-08T04:59:27;15;15;
48155;PMS5003;35568;48.104;11.782;2023-03-08T05:01:54;16;15;
48155;PMS5003;35568;48.104;11.782;2023-03-08T05:04:21;16;15;
48155;PMS5003;35568;48.104;11.782;2023-03-08T05:06:48;12;12;
48155;PMS5003;35568;48.104;11.782;2023-03-08T05:09:14;14;13;
48155;PMS5003;35568;48.104;11.782;2023-03-08T05:11:41;16;15;
48155;PMS5003;35568;48.104;11.782;2023-03-08T05:14:08;16;16;
48155;PMS5003;35568;48.104;11.782;2023-03-08T05:16:35;16;14;
48155;PMS5003;35568;48.104;11.782;2023-03-08T05:19:02;17;16;
48155;PMS5003;35568;48.104;11.782;2023-03-08T05:21:29;14;14;
48155;PMS5003;35568;48.104;11.782;2023-03-08T05:23:57;17;17;
48155;PMS5003;35568;48.104;11.782;2023-03-08T05:26:25;17;16;
48155;PMS5003;35568;48.104;11.782;2023-03-08T05:28:52;17;15;
48155;PMS5003;35568;48.104;11.782;2023-03-08T05:31:20;14;14;
48155;PMS5003;35568;48.104;11.782;2023-03-08T05:33:48;17;17;
48155;PMS5003;35568;48.104;11.782;2023-03-08T05:36:16;17;16;
48155;PMS5003;35568;48.104;11.782;2023-03-08T05:38:44;16;15;
48155;PMS5003;35568;48.104;11.782;2023-03-08T05:41:13;14;13;
48155;PMS5003;35568;48.104;11.782;2023-03-08T05:43:41;17;16;
48155;PMS5003;35568;48.104;11.782;2023-03-08T05:46:10;13;13;
48155;PMS5003;35568;48.104;11.782;2023-03-08T05:48:39;18;18;
48155;PMS5003;35568;48.104;11.782;2023-03-08T05:51:07;19;18;
48155;PMS5003;35568;48.104;11.782;2023-03-08T05:53:35;24;22;
48155;PMS5003;35568;48.104;11.782;2023-03-08T05:56:06;22;20;
48155;PMS5003;35568;48.104;11.782;2023-03-08T05:58:35;19;19;
48155;PMS5003;35568;48.104;11.782;2023-03-08T06:01:07;16;16;
48155;PMS5003;35568;48.104;11.782;2023-03-08T06:03:36;22;21;
48155;PMS5003;35568;48.104;11.782;2023-03-08T06:06:03;15;15;
48155;PMS5003;35568;48.104;11.782;2023-03-08T06:08:31;17;16;
48155;PMS5003;35568;48.104;11.782;2023-03-08T06:10:58;16;16;
48155;PMS5003;35568;48.104;11.782;2023-03-08T06:13:25;15;15;
48155;PMS5003;35568;48.104;11.782;2023-03-08T06:15:53;20;19;
48155;PMS5003;35568;48.104;11.782;2023-03-08T06:18:21;17;17;
48155;PMS5003;35568;48.104;11.782;2023-03-08T06:20:54;21;20;
48155;PMS5003;35568;48.104;11.782;2023-03-08T06:23:22;17;17;
48155;PMS5003;35568;48.104;11.782;2023-03-08T06:25:50;21;21;
48155;PMS5003;35568;48.104;11.782;2023-03-08T06:28:16;16;16;
48155;PMS5003;35568;48.104;11.782;2023-03-08T06:30:45;21;21;
48155;PMS5003;35568;48.104;11.782;2023-03-08T06:33:11;19;18;
48155;PMS5003;35568;48.104;11.782;2023-03-08T06:35:39;20;20;
48155;PMS5003;35568;48.104;11.782;2023-03-08T06:38:06;24;23;
48155;PMS5003;35568;48.104;11.782;2023-03-08T06:40:33;35;34;
48155;PMS5003;35568;48.104;11.782;2023-03-08T06:43:01;29;28;
48155;PMS5003;35568;48.104;11.782;2023-03-08T06:45:28;24;23;
48155;PMS5003;35568;48.104;11.782;2023-03-08T06:47:55;27;27;
48155;PMS5003;35568;48.104;11.782;2023-03-08T06:50:22;20;19;
48155;PMS5003;35568;48.104;11.782;2023-03-08T06:52:49;24;22;
48155;PMS5003;35568;48.104;11.782;2023-03-08T06:55:16;16;16;
48155;PMS5003;35568;48.104;11.782;2023-03-08T06:57:43;23;21;
48155;PMS5003;35568;48.104;11.782;2023-03-08T07:00:11;27;26;
48155;PMS5003;35568;48.104;11.782;2023-03-08T07:02:40;26;25;
48155;PMS5003;35568;48.104;11.782;2023-03-08T07:05:08;35;33;
48155;PMS5003;35568;48.104;11.782;2023-03-08T07:07:39;20;20;
48155;PMS5003;35568;48.104;11.782;2023-03-08T07:10:12;20;19;
48155;PMS5003;35568;48.104;11.782;2023-03-08T07:12:40;16;16;
48155;PMS5003;35568;48.104;11.782;2023-03-08T07:15:09;18;16;
48155;PMS5003;35568;48.104;11.782;2023-03-08T07:17:36;17;17;
48155;PMS5003;35568;48.104;11.782;2023-03-08T07:20:03;17;17;
48155;PMS5003;35568;48.104;11.782;2023-03-08T07:22:31;18;17;
48155;PMS5003;35568;48.104;11.782;2023-03-08T07:25:04;26;22;
48155;PMS5003;35568;48.104;11.782;2023-03-08T07:27:37;20;18;
48155;PMS5003;35568;48.104;11.782;2023-03-08T07:30:05;20;20;
48155;PMS5003;35568;48.104;11.782;2023-03-08T07:32:33;19;18;
48155;PMS5003;35568;48.104;11.782;2023-03-08T07:35:00;16;15;
48155;PMS5003;35568;48.104;11.782;2023-03-08T07:37:27;17;17;
48155;PMS5003;35568;48.104;11.782;2023-03-08T07:39:54;17;16;
48155;PMS5003;35568;48.104;11.782;2023-03-08T07:42:21;16;15;
48155;PMS5003;35568;48.104;11.782;2023-03-08T07:44:48;27;26;
48155;PMS5003;35568;48.104;11.782;2023-03-08T07:47:15;23;22;
48155;PMS5003;35568;48.104;11.782;2023-03-08T07:49:43;32;27;
48155;PMS5003;35568;48.104;11.782;2023-03-08T07:52:09;32;30;
48155;PMS5003;35568;48.104;11.782;2023-03-08T07:54:37;27;26;
48155;PMS5003;35568;48.104;11.782;2023-03-08T07:57:04;28;26;
48155;PMS5003;35568;48.104;11.782;2023-03-08T07:59:32;23;21;
48155;PMS5003;35568;48.104;11.782;2023-03-08T08:01:59;19;18;
48155;PMS5003;35568;48.104;11.782;2023-03-08T08:04:26;20;17;
48155;PMS5003;35568;48.104;11.782;2023-03-08T08:06:53;18;16;
48155;PMS5003;35568;48.104;11.782;2023-03-08T08:09:20;20;19;
48155;PMS5003;35568;48.104;11.782;2023-03-08T08:11:47;25;22;
48155;PMS5003;35568;48.104;11.782;2023-03-08T08:14:15;23;22;
48155;PMS5003;35568;48.104;11.782;2023-03-08T08:16:42;24;23;
48155;PMS5003;35568;48.104;11.782;2023-03-08T08:19:10;18;18;
48155;PMS5003;35568;48.104;11.782;2023-03-08T08:21:37;14;14;
48155;PMS5003;35568;48.104;11.782;2023-03-08T08:24:04;20;20;
48155;PMS5003;35568;48.104;11.782;2023-03-08T08:26:32;18;18;
48155;PMS5003;35568;48.104;11.782;2023-03-08T08:28:59;20;19;
48155;PMS5003;35568;48.104;11.782;2023-03-08T08:31:27;17;15;
48155;PMS5003;35568;48.104;11.782;2023-03-08T08:33:54;22;21;
48155;PMS5003;35568;48.104;11.782;2023-03-08T08:36:22;20;19;
48155;PMS5003;35568;48.104;11.782;2023-03-08T08:38:49;22;20;
48155;PMS5003;35568;48.104;11.782;2023-03-08T08:41:17;19;18;
48155;PMS5003;35568;48.104;11.782;2023-03-08T08:43:46;19;17;
48155;PMS5003;35568;48.104;11.782;2023-03-08T08:46:14;21;21;
48155;PMS5003;35568;48.104;11.782;2023-03-08T08:48:42;21;19;
48155;PMS5003;35568;48.104;11.782;2023-03-08T08:51:10;21;21;
48155;PMS5003;35568;48.104;11.782;2023-03-08T08:53:38;21;21;
48155;PMS5003;35568;48.104;11.782;2023-03-08T08:56:10;26;24;
48155;PMS5003;35568;48.104;11.782;2023-03-08T08:58:38;22;20;
48155;PMS5003;35568;48.104;11.782;2023-03-08T09:01:11;24;23;
48155;PMS5003;35568;48.104;11.782;2023-03-08T09:03:39;27;24;
48155;PMS5003;35568;48.104;11.782;2023-03-08T09:06:06;21;21;
48155;PMS5003;35568;48.104;11.782;2023-03-08T09:08:34;24;22;
48155;PMS5003;35568;48.104;11.782;2023-03-08T09:11:01;20;18;
48155;PMS5003;35568;48.104;11.782;2023-03-08T09:13:30;21;19;
48155;PMS5003;35568;48.104;11.782;2023-03-08T09:15:57;21;20;
48155;PMS5003;35568;48.104;11.782;2023-03-08T09:18:24;24;22;
48155;PMS5003;35568;48.104;11.782;2023-03-08T09:20:51;23;21;
48155;PMS5003;35568;48.104;11.782;2023-03-08T09:23:18;20;19;
48155;PMS5003;35568;48.104;11.782;2023-03-08T09:25:52;24;22;
48155;PMS5003;35568;48.104;11.782;2023-03-08T09:28:20;21;21;
48155;PMS5003;35568;48.104;11.782;2023-03-08T09:30:47;21;20;
48155;PMS5003;35568;48.104;11.782;2023-03-08T09:33:14;23;22;
48155;PMS5003;35568;48.104;11.782;2023-03-08T09:35:42;15;15;
48155;PMS5003;35568;48.104;11.782;2023-03-08T09:38:09;20;19;
48155;PMS5003;35568;48.104;11.782;2023-03-08T09:40:38;20;19;
48155;PMS5003;35568;48.104;11.782;2023-03-08T09:43:18;17;17;
48155;PMS5003;35568;48.104;11.782;2023-03-08T09:45:54;23;22;
48155;PMS5003;35568;48.104;11.782;2023-03-08T09:48:22;17;16;
48155;PMS5003;35568;48.104;11.782;2023-03-08T09:50:55;18;18;
48155;PMS5003;35568;48.104;11.782;2023-03-08T09:53:27;21;21;
48155;PMS5003;35568;48.104;11.782;2023-03-08T09:56:00;20;19;
48155;PMS5003;35568;48.104;11.782;2023-03-08T09:58:31;25;23;
48155;PMS5003;35568;48.104;11.782;2023-03-08T10:01:05;21;21;
48155;PMS5003;35568;48.104;11.782;2023-03-08T10:03:52;22;20;
48155;PMS5003;35568;48.104;11.782;2023-03-08T10:06:31;23;21;
48155;PMS5003;35568;48.104;11.782;2023-03-08T10:09:04;19;19;
48155;PMS5003;35568;48.104;11.782;2023-03-08T10:11:46;22;22;
48155;PMS5003;35568;48.104;11.782;2023-03-08T10:14:19;19;19;
48155;PMS5003;35568;48.104;11.782;2023-03-08T10:16:53;22;21;
48155;PMS5003;35568;48.104;11.782;2023-03-08T10:19:24;19;18;
48155;PMS5003;35568;48.104;11.782;2023-03-08T10:21:57;19;19;
48155;PMS5003;35568;48.104;11.782;2023-03-08T10:24:30;24;23;
48155;PMS5003;35568;48.104;11.782;2023-03-08T10:27:08;20;18;
48155;PMS5003;35568;48.104;11.782;2023-03-08T10:29:46;21;20;
48155;PMS5003;35568;48.104;11.782;2023-03-08T10:32:14;23;22;
48155;PMS5003;35568;48.104;11.782;2023-03-08T10:34:41;26;24;
48155;PMS5003;35568;48.104;11.782;2023-03-08T10:37:08;22;22;
48155;PMS5003;35568;48.104;11.782;2023-03-08T10:39:36;19;17;
48155;PMS5003;35568;48.104;11.782;2023-03-08T10:42:12;20;18;
48155;PMS5003;35568;48.104;11.782;2023-03-08T10:44:43;22;20;
48155;PMS5003;35568;48.104;11.782;2023-03-08T10:47:18;20;19;
48155;PMS5003;35568;48.104;11.782;2023-03-08T10:49:46;24;21;
48155;PMS5003;35568;48.104;11.782;2023-03-08T10:52:19;19;17;
48155;PMS5003;35568;48.104;11.782;2023-03-08T10:54:58;16;16;
48155;PMS5003;35568;48.104;11.782;2023-03-08T10:57:26;20;20;
48155;PMS5003;35568;48.104;11.782;2023-03-08T10:59:55;22;21;
48155;PMS5003;35568;48.104;11.782;2023-03-08T11:02:25;20;20;
48155;PMS5003;35568;48.104;11.782;2023-03-08T11:04:53;21;20;
48155;PMS5003;35568;48.104;11.782;2023-03-08T11:07:21;22;21;
48155;PMS5003;35568;48.104;11.782;2023-03-08T11:09:51;29;27;
48155;PMS5003;35568;48.104;11.782;2023-03-08T11:12:28;24;23;
48155;PMS5003;35568;48.104;11.782;2023-03-08T11:14:55;19;17;
48155;PMS5003;35568;48.104;11.782;2023-03-08T11:17:25;20;19;
48155;PMS5003;35568;48.104;11.782;2023-03-08T11:20:00;20;18;
48155;PMS5003;35568;48.104;11.782;2023-03-08T11:22:39;26;24;
48155;PMS5003;35568;48.104;11.782;2023-03-08T11:25:23;26;25;
48155;PMS5003;35568;48.104;11.782;2023-03-08T11:28:01;18;18;
48155;PMS5003;35568;48.104;11.782;2023-03-08T11:30:40;24;22;
48155;PMS5003;35568;48.104;11.782;2023-03-08T11:33:23;21;19;
48155;PMS5003;35568;48.104;11.782;2023-03-08T11:36:01;25;25;
48155;PMS5003;35568;48.104;11.782;2023-03-08T11:38:33;24;23;
48155;PMS5003;35568;48.104;11.782;2023-03-08T11:41:03;22;21;
48155;PMS5003;35568;48.104;11.782;2023-03-08T11:43:44;21;21;
48155;PMS5003;35568;48.104;11.782;2023-03-08T11:46:21;21;19;
48155;PMS5003;35568;48.104;11.782;2023-03-08T11:48:54;18;16;
48155;PMS5003;35568;48.104;11.782;2023-03-08T11:51:40;15;14;
48155;PMS5003;35568;48.104;11.782;2023-03-08T11:54:17;18;17;
48155;PMS5003;35568;48.104;11.782;2023-03-08T11:56:55;14;14;
48155;PMS5003;35568;48.104;11.782;2023-03-08T11:59:28;16;15;
48155;PMS5003;35568;48.104;11.782;2023-03-08T12:02:00;13;13;
48155;PMS5003;35568;48.104;11.782;2023-03-08T12:04:37;16;16;
48155;PMS5003;35568;48.104;11.782;2023-03-08T12:07:11;16;16;
48155;PMS5003;35568;48.104;11.782;2023-03-08T12:09:49;14;14;
48155;PMS5003;35568;48.104;11.782;2023-03-08T12:12:23;24;23;
48155;PMS5003;35568;48.104;11.782;2023-03-08T12:14:54;15;15;
48155;PMS5003;35568;48.104;11.782;2023-03-08T12:17:25;16;15;
48155;PMS5003;35568;48.104;11.782;2023-03-08T12:19:56;13;12;
48155;PMS5003;35568;48.104;11.782;2023-03-08T12:22:27;17;16;
48155;PMS5003;35568;48.104;11.782;2023-03-08T12:22:46;18;16;
48155;PMS5003;35568;48.104;11.782;2023-03-08T12:26:46;14;13;
48155;PMS5003;35568;48.104;11.782;2023-03-08T12:31:24;15;13;
48155;PMS5003;35568;48.104;11.782;2023-03-08T12:33:54;13;12;
48155;PMS5003;35568;48.104;11.782;2023-03-08T12:36:34;13;13;
48155;PMS5003;35568;48.104;11.782;2023-03-08T12:39:05;13;12;
48155;PMS5003;35568;48.104;11.782;2023-03-08T12:41:34;27;26;
48155;PMS5003;35568;48.104;11.782;2023-03-08T12:44:02;11;10;
48155;PMS5003;35568;48.104;11.782;2023-03-08T12:46:51;25;22;
48155;PMS5003;35568;48.104;11.782;2023-03-08T12:49:23;15;14;
48155;PMS5003;35568;48.104;11.782;2023-03-08T12:51:55;11;10;
48155;PMS5003;35568;48.104;11.782;2023-03-08T12:54:36;9;9;
48155;PMS5003;35568;48.104;11.782;2023-03-08T12:57:13;9;9;
48155;PMS5003;35568;48.104;11.782;2023-03-08T13:00:26;16;14;
48155;PMS5003;35568;48.104;11.782;2023-03-08T13:02:59;10;10;
48155;PMS5003;35568;48.104;11.782;2023-03-08T13:05:33;9;9;
48155;PMS5003;35568;48.104;11.782;2023-03-08T13:08:13;7;7;
48155;PMS5003;35568;48.104;11.782;2023-03-08T13:11:00;10;10;
48155;PMS5003;35568;48.104;11.782;2023-03-08T13:13:37;10;10;
48155;PMS5003;35568;48.104;11.782;2023-03-08T13:16:40;9;8;
48155;PMS5003;35568;48.104;11.782;2023-03-08T13:19:16;10;8;
48155;PMS5003;35568;48.104;11.782;2023-03-08T13:21:48;10;9;
48155;PMS5003;35568;48.104;11.782;2023-03-08T13:24:29;9;8;
48155;PMS5003;35568;48.104;11.782;2023-03-08T13:27:11;10;10;
48155;PMS5003;35568;48.104;11.782;2023-03-08T13:29:46;9;8;
48155;PMS5003;35568;48.104;11.782;2023-03-08T13:32:14;11;11;
48155;PMS5003;35568;48.104;11.782;2023-03-08T13:34:43;10;10;
48155;PMS5003;35568;48.104;11.782;2023-03-08T13:37:19;12;9;
48155;PMS5003;35568;48.104;11.782;2023-03-08T13:39:50;8;8;
48155;PMS5003;35568;48.104;11.782;2023-03-08T13:42:18;7;7;
48155;PMS5003;35568;48.104;11.782;2023-03-08T13:44:46;7;7;
48155;PMS5003;35568;48.104;11.782;2023-03-08T13:47:16;4;3;
48155;PMS5003;35568;48.104;11.782;2023-03-08T13:49:47;1;1;
48155;PMS5003;35568;48.104;11.782;2023-03-08T13:52:17;0;0;
48155;PMS5003;35568;48.104;11.782;2023-03-08T13:54:46;1;1;
48155;PMS5003;35568;48.104;11.782;2023-03-08T13:57:20;0;0;
48155;PMS5003;35568;48.104;11.782;2023-03-08T13:59:49;0;0;
48155;PMS5003;35568;48.104;11.782;2023-03-08T14:02:19;0;0;
48155;PMS5003;35568;48.104;11.782;2023-03-08T14:04:48;0;0;
48155;PMS5003;35568;48.104;11.782;2023-03-08T14:07:18;0;0;
48155;PMS5003;35568;48.104;11.782;2023-03-08T14:09:47;1;1;
48155;PMS5003;35568;48.104;11.782;2023-03-08T14:12:16;0;0;
48155;PMS5003;35568;48.104;11.782;2023-03-08T14:14:47;0;0;
48155;PMS5003;35568;48.104;11.782;2023-03-08T14:17:18;0;0;
48155;PMS5003;35568;48.104;11.782;2023-03-08T14:19:50;0;0;
48155;PMS5003;35568;48.104;11.782;2023-03-08T14:22:19;0;0;
48155;PMS5003;35568;48.104;11.782;2023-03-08T14:24:49;0;0;
48155;PMS5003;35568;48.104;11.782;2023-03-08T14:27:29;0;0;
48155;PMS5003;35568;48.104;11.782;2023-03-08T14:30:03;0;0;
48155;PMS5003;35568;48.104;11.782;2023-03-08T14:32:37;1;1;
48155;PMS5003;35568;48.104;11.782;2023-03-08T14:35:05;0;0;
48155;PMS5003;35568;48.104;11.782;2023-03-08T14:37:42;1;0;
48155;PMS5003;35568;48.104;11.782;2023-03-08T14:40:17;0;0;
48155;PMS5003;35568;48.104;11.782;2023-03-08T14:42:49;0;0;
48155;PMS5003;35568;48.104;11.782;2023-03-08T14:45:19;0;0;
48155;PMS5003;35568;48.104;11.782;2023-03-08T14:47:49;0;0;
48155;PMS5003;35568;48.104;11.782;2023-03-08T14:50:18;0;0;
48155;PMS5003;35568;48.104;11.782;2023-03-08T14:52:48;0;0;
48155;PMS5003;35568;48.104;11.782;2023-03-08T14:55:19;1;0;
48155;PMS5003;35568;48.104;11.782;2023-03-08T14:57:48;0;0;
48155;PMS5003;35568;48.104;11.782;2023-03-08T15:00:18;0;0;
48155;PMS5003;35568;48.104;11.782;2023-03-08T15:02:46;0;0;
48155;PMS5003;35568;48.104;11.782;2023-03-08T15:05:13;0;0;
48155;PMS5003;35568;48.104;11.782;2023-03-08T15:07:42;0;0;
48155;PMS5003;35568;48.104;11.782;2023-03-08T15:10:15;1;0;
48155;PMS5003;35568;48.104;11.782;2023-03-08T15:12:49;0;0;
48155;PMS5003;35568;48.104;11.782;2023-03-08T15:15:16;0;0;
48155;PMS5003;35568;48.104;11.782;2023-03-08T15:17:45;0;0;
48155;PMS5003;35568;48.104;11.782;2023-03-08T15:20:13;1;0;
48155;PMS5003;35568;48.104;11.782;2023-03-08T15:22:42;1;1;
48155;PMS5003;35568;48.104;11.782;2023-03-08T15:25:12;0;0;
48155;PMS5003;35568;48.104;11.782;2023-03-08T15:27:41;0;0;
48155;PMS5003;35568;48.104;11.782;2023-03-08T15:30:16;0;0;
48155;PMS5003;35568;48.104;11.782;2023-03-08T15:32:45;0;0;
48155;PMS5003;35568;48.104;11.782;2023-03-08T15:35:12;0;0;
48155;PMS5003;35568;48.104;11.782;2023-03-08T15:37:40;0;0;
48155;PMS5003;35568;48.104;11.782;2023-03-08T15:40:10;0;0;
48155;PMS5003;35568;48.104;11.782;2023-03-08T15:42:40;0;0;
48155;PMS5003;35568;48.104;11.782;2023-03-08T15:45:07;0;0;
48155;PMS5003;35568;48.104;11.782;2023-03-08T15:47:35;0;0;
48155;PMS5003;35568;48.104;11.782;2023-03-08T15:50:02;0;0;
48155;PMS5003;35568;48.104;11.782;2023-03-08T15:52:31;0;0;
48155;PMS5003;35568;48.104;11.782;2023-03-08T15:54:58;0;0;
48155;PMS5003;35568;48.104;11.782;2023-03-08T15:57:25;0;0;
48155;PMS5003;35568;48.104;11.782;2023-03-08T15:59:52;0;0;
48155;PMS5003;35568;48.104;11.782;2023-03-08T16:02:19;0;0;
48155;PMS5003;35568;48.104;11.782;2023-03-08T16:04:46;0;0;
48155;PMS5003;35568;48.104;11.782;2023-03-08T16:07:13;0;0;
48155;PMS5003;35568;48.104;11.782;2023-03-08T16:09:42;2;2;
48155;PMS5003;35568;48.104;11.782;2023-03-08T16:12:09;0;0;
48155;PMS5003;35568;48.104;11.782;2023-03-08T16:14:37;1;1;
48155;PMS5003;35568;48.104;11.782;2023-03-08T16:17:04;0;0;
48155;PMS5003;35568;48.104;11.782;2023-03-08T16:19:32;1;1;
48155;PMS5003;35568;48.104;11.782;2023-03-08T16:22:00;1;1;
48155;PMS5003;35568;48.104;11.782;2023-03-08T16:24:28;0;0;
48155;PMS5003;35568;48.104;11.782;2023-03-08T16:26:54;1;1;
48155;PMS5003;35568;48.104;11.782;2023-03-08T16:29:22;0;0;